Time;durP1;ratioP1;P1;durP2;ratioP2;P2;SDS_P1;SDS_P2;PMS_P1;PMS_P2;Temp;Humidity;BMP_temperature;BMP_pressure;BME280_temperature;BME280_humidity;BME280_pressure;Samples;Min_cycle;Max_cycle;Signal;HPM_P1;HPM_P2
2021/06/18 00:00:29;;;;;;;4.23;3.83;;;;;;;20.64;59.38;99466.63;4980361;28;20567;-80
2021/06/18 00:02:56;;;;;;;4.67;4.20;;;;;;;20.51;60.06;99456.44;4948387;28;20239;-80
2021/06/18 00:05:26;;;;;;;5.23;4.20;;;;;;;20.52;59.73;99461.59;4980267;28;20321;-81
2021/06/18 00:07:53;;;;;;;4.57;4.00;;;;;;;20.48;59.88;99460.53;4980933;28;20536;-84
2021/06/18 00:10:23;;;;;;;5.60;4.27;;;;;;;20.47;60.31;99469.00;4979721;28;20310;-82
2021/06/18 00:12:50;;;;;;;4.73;4.33;;;;;;;20.45;60.84;99463.00;4964508;28;20229;-81
2021/06/18 00:15:18;;;;;;;4.20;3.70;;;;;;;20.36;61.05;99462.03;4964339;28;20238;-83
2021/06/18 00:17:46;;;;;;;4.40;4.00;;;;;;;20.21;61.70;99465.66;4964317;28;20572;-84
2021/06/18 00:20:13;;;;;;;4.50;4.17;;;;;;;20.16;61.54;99466.53;4963787;28;20230;-83
2021/06/18 00:22:40;;;;;;;4.60;4.20;;;;;;;20.11;61.78;99474.72;4964278;28;20229;-81
2021/06/18 00:25:08;;;;;;;4.50;4.10;;;;;;;20.06;62.32;99458.47;4980502;28;20232;-83
2021/06/18 00:27:35;;;;;;;5.53;4.70;;;;;;;20.03;62.42;99471.81;4963980;28;20238;-84
2021/06/18 00:30:08;;;;;;;5.37;4.73;;;;;;;19.89;62.88;99459.97;4979684;28;20291;-82
2021/06/18 00:32:36;;;;;;;5.07;4.67;;;;;;;19.79;62.94;99453.53;4963962;28;20225;-86
2021/06/18 00:35:03;;;;;;;4.80;4.40;;;;;;;19.85;62.77;99458.91;4970145;28;20224;-85
2021/06/18 00:37:30;;;;;;;5.20;4.70;;;;;;;19.75;62.63;99459.81;4979305;28;20237;-81
2021/06/18 00:39:57;;;;;;;5.07;4.67;;;;;;;19.70;62.73;99459.84;5005953;28;20290;-82
2021/06/18 00:42:24;;;;;;;4.80;4.40;;;;;;;19.56;63.30;99439.84;4995796;28;20252;-83
2021/06/18 00:44:50;;;;;;;6.60;4.80;;;;;;;19.59;63.52;99450.16;4981332;28;20255;-86
2021/06/18 00:47:20;;;;;;;5.93;4.83;;;;;;;19.56;63.57;99450.72;4982746;28;20232;-80
2021/06/18 00:49:47;;;;;;;5.27;4.77;;;;;;;19.53;63.84;99449.38;4999355;28;20685;-84
2021/06/18 00:52:15;;;;;;;6.30;4.67;;;;;;;19.58;63.18;99453.97;4982247;28;20293;-79
2021/06/18 00:54:44;;;;;;;7.60;4.97;;;;;;;19.51;63.31;99443.41;4999016;28;20258;-84
2021/06/18 00:57:12;;;;;;;5.23;4.73;;;;;;;19.51;63.75;99457.00;4982481;28;20264;-82
2021/06/18 00:59:39;;;;;;;4.90;4.50;;;;;;;19.44;64.17;99451.06;4998969;28;20249;-79
2021/06/18 01:02:06;;;;;;;6.30;5.10;;;;;;;19.43;63.61;99449.41;4982609;28;20628;-83
2021/06/18 01:04:33;;;;;;;5.40;4.90;;;;;;;19.35;64.20;99448.13;4998927;28;20237;-81
2021/06/18 01:07:22;;;;;;;5.57;4.77;;;;;;;19.40;64.18;99449.16;4966525;28;20227;-86
2021/06/18 01:10:11;;;;;;;4.83;4.43;;;;;;;19.37;64.13;99450.53;4982740;28;20239;-80
2021/06/18 01:12:56;;;;;;;5.00;4.60;;;;;;;19.28;65.13;99442.16;4998466;28;20251;-86
2021/06/18 01:15:34;;;;;;;5.77;5.03;;;;;;;19.22;65.25;99453.34;4966972;28;20304;-87
2021/06/18 01:18:04;;;;;;;5.53;5.03;;;;;;;19.16;65.80;99447.13;4982126;28;20231;-79
2021/06/18 01:20:59;;;;;;;5.03;4.63;;;;;;;19.13;65.89;99444.19;4982761;28;20259;-87
2021/06/18 01:24:08;;;;;;;5.40;4.90;;;;;;;19.06;66.25;99449.09;5016010;28;20261;-82
2021/06/18 01:27:00;;;;;;;5.60;5.00;;;;;;;18.99;66.87;99446.66;4982409;28;20238;-83
2021/06/18 01:29:32;;;;;;;6.20;5.17;;;;;;;18.92;67.10;99446.16;4998472;28;20286;-87
2021/06/18 01:32:01;;;;;;;4.77;4.43;;;;;;;18.78;66.97;99432.38;4982325;28;20277;-87
2021/06/18 01:34:30;;;;;;;6.20;5.20;;;;;;;18.78;67.81;99447.84;4966075;28;20602;-80
2021/06/18 01:37:02;;;;;;;5.63;5.00;;;;;;;18.71;67.56;99436.50;4982237;28;20227;-80
2021/06/18 01:39:30;;;;;;;5.20;4.70;;;;;;;18.70;67.99;99445.72;5015655;28;20317;-82
2021/06/18 01:41:59;;;;;;;6.20;4.90;;;;;;;18.60;68.09;99438.44;4998215;28;20231;-85
2021/06/18 01:44:27;;;;;;;5.47;4.97;;;;;;;18.63;67.80;99448.72;4998245;28;20643;-81
2021/06/18 01:46:56;;;;;;;5.83;5.27;;;;;;;18.60;68.13;99451.19;4998525;28;20247;-79
2021/06/18 01:49:23;;;;;;;6.60;5.30;;;;;;;18.54;68.12;99455.81;4998251;28;20226;-88
2021/06/18 01:51:51;;;;;;;5.03;4.53;;;;;;;18.39;68.39;99451.19;4982437;28;20555;-80
2021/06/18 01:54:26;;;;;;;6.00;5.40;;;;;;;18.37;68.81;99449.84;4997940;28;20257;-85
2021/06/18 01:56:54;;;;;;;6.00;5.40;;;;;;;18.34;68.90;99453.91;4983205;28;20274;-87
2021/06/18 01:59:25;;;;;;;5.97;4.73;;;;;;;18.30;68.90;99454.72;4998119;28;20697;-80
2021/06/18 02:01:52;;;;;;;5.37;4.97;;;;;;;18.23;69.18;99448.78;4998363;28;20239;-87
2021/06/18 02:04:19;;;;;;;5.80;5.20;;;;;;;18.22;69.10;99456.13;4997808;28;20262;-86
2021/06/18 02:06:47;;;;;;;7.40;5.90;;;;;;;18.15;69.38;99452.84;4982222;28;20237;-86
2021/06/18 02:09:15;;;;;;;5.70;5.13;;;;;;;18.15;69.50;99463.69;5000813;28;20729;-86
2021/06/18 02:11:43;;;;;;;5.97;5.40;;;;;;;18.05;69.84;99461.03;5001947;28;20246;-81
2021/06/18 02:14:15;;;;;;;5.80;5.30;;;;;;;18.04;70.08;99462.91;4985580;28;20317;-79
2021/06/18 02:16:46;;;;;;;7.07;5.17;;;;;;;18.03;70.27;99468.59;4986182;28;20277;-83
2021/06/18 02:19:14;;;;;;;5.87;5.27;;;;;;;17.93;70.68;99469.41;4986394;28;20231;-88
2021/06/18 02:21:41;;;;;;;7.37;5.50;;;;;;;17.83;71.01;99466.69;5001940;28;20285;-88
2021/06/18 02:24:09;;;;;;;6.73;5.73;;;;;;;17.81;71.04;99473.47;5001625;28;20227;-79
2021/06/18 02:26:35;;;;;;;6.00;5.50;;;;;;;17.79;70.85;99467.50;4985902;28;20242;-83
2021/06/18 02:29:05;;;;;;;5.97;5.43;;;;;;;17.79;71.58;99476.47;5019096;28;20578;-81
2021/06/18 02:31:35;;;;;;;6.07;5.03;;;;;;;17.78;71.42;99474.81;5001998;28;20269;-86
2021/06/18 02:34:02;;;;;;;5.80;5.30;;;;;;;17.78;71.56;99485.66;4985506;28;20325;-86
2021/06/18 02:36:29;;;;;;;7.47;5.80;;;;;;;17.73;71.64;99472.09;4985562;28;20257;-81
2021/06/18 02:38:56;;;;;;;6.20;5.60;;;;;;;17.80;71.31;99482.69;4985613;28;20243;-85
2021/06/18 02:41:23;;;;;;;6.47;5.70;;;;;;;17.73;71.44;99474.03;5001641;28;20646;-84
2021/06/18 02:43:50;;;;;;;6.50;5.67;;;;;;;17.76;71.22;99471.59;4985718;28;20245;-83
2021/06/18 02:46:24;;;;;;;6.33;5.83;;;;;;;17.72;71.08;99469.69;5001392;28;20238;-87
2021/06/18 02:48:54;;;;;;;6.33;5.73;;;;;;;17.74;71.29;99470.22;5001612;28;20246;-88
2021/06/18 02:51:37;;;;;;;6.20;5.60;;;;;;;17.73;71.23;99471.31;4985425;28;20234;-85
2021/06/18 02:54:13;;;;;;;5.80;5.30;;;;;;;17.71;71.44;99462.63;5000707;28;20227;-85
2021/06/18 02:56:44;;;;;;;5.93;5.43;;;;;;;17.78;71.51;99468.59;4984979;28;20591;-89
2021/06/18 02:59:20;;;;;;;6.40;5.80;;;;;;;17.80;71.50;99478.09;5001260;28;20234;-81
2021/06/18 03:01:51;;;;;;;6.23;5.63;;;;;;;17.81;71.68;99482.44;5001534;28;20244;-85
2021/06/18 03:04:23;;;;;;;7.50;5.67;;;;;;;17.77;71.85;99480.53;4984932;28;20241;-90
2021/06/18 03:07:08;;;;;;;6.47;5.87;;;;;;;17.75;71.84;99474.56;4969309;28;20250;-83
2021/06/18 03:09:39;;;;;;;7.70;6.00;;;;;;;17.75;71.41;99474.56;4985238;28;20579;-82
2021/06/18 03:12:08;;;;;;;6.03;5.53;;;;;;;17.77;71.48;99475.13;4984435;28;20227;-89
2021/06/18 03:14:36;;;;;;;6.63;5.97;;;;;;;17.79;71.34;99464.78;4985202;28;20223;-86
2021/06/18 03:17:05;;;;;;;6.13;5.53;;;;;;;17.88;71.20;99474.00;4984667;28;20269;-82
2021/06/18 03:19:37;;;;;;;5.70;5.13;;;;;;;17.88;71.00;99479.44;4984495;28;20231;-89
2021/06/18 03:22:05;;;;;;;7.90;5.50;;;;;;;17.88;70.90;99476.72;5000312;28;20285;-85
2021/06/18 03:24:34;;;;;;;6.57;5.90;;;;;;;17.88;70.97;99485.66;4969336;28;20245;-87
2021/06/18 03:27:01;;;;;;;6.20;5.60;;;;;;;17.89;70.82;99481.06;4984513;28;20303;-82
2021/06/18 03:29:29;;;;;;;6.33;5.80;;;;;;;17.89;71.10;99489.19;4968507;28;20305;-79
2021/06/18 03:31:57;;;;;;;6.33;5.73;;;;;;;17.99;70.88;99492.72;5000867;28;20281;-86
2021/06/18 03:34:25;;;;;;;6.47;5.80;;;;;;;18.01;70.93;99492.44;5000235;28;20226;-81
2021/06/18 03:36:52;;;;;;;6.30;5.70;;;;;;;18.09;70.98;99496.53;4968468;28;20265;-86
2021/06/18 03:39:20;;;;;;;6.23;5.57;;;;;;;18.15;70.71;99492.75;4984622;28;20227;-89
2021/06/18 03:41:47;;;;;;;7.57;5.90;;;;;;;18.17;70.52;99485.94;5000776;28;20230;-85
2021/06/18 03:44:19;;;;;;;6.20;5.70;;;;;;;18.29;70.40;99491.09;4983771;28;20310;-80
2021/06/18 03:46:47;;;;;;;6.20;5.60;;;;;;;18.28;70.28;99478.63;4968304;28;20223;-85
2021/06/18 03:49:15;;;;;;;6.70;6.13;;;;;;;18.37;70.02;99479.69;4984136;28;20227;-81
2021/06/18 03:51:42;;;;;;;6.10;5.53;;;;;;;18.48;69.87;99482.09;4984346;28;20304;-81
2021/06/18 03:54:09;;;;;;;7.00;5.90;;;;;;;18.37;69.90;99475.06;5000021;28;20679;-80
2021/06/18 03:56:38;;;;;;;6.50;5.90;;;;;;;18.41;69.89;99497.84;4984161;28;20227;-86
2021/06/18 03:59:05;;;;;;;6.93;5.90;;;;;;;18.45;69.90;99496.22;5000158;28;20254;-85
2021/06/18 04:01:35;;;;;;;7.50;5.87;;;;;;;18.62;69.39;99492.41;4984159;28;20289;-82
2021/06/18 04:04:04;;;;;;;6.33;5.73;;;;;;;19.24;67.57;99492.72;5000260;28;20678;-88
2021/06/18 04:06:31;;;;;;;6.27;5.67;;;;;;;20.04;65.66;99493.31;4999879;28;20611;-87
2021/06/18 04:08:58;;;;;;;5.77;5.17;;;;;;;20.74;62.55;99480.13;4983901;28;20235;-84
2021/06/18 04:11:25;;;;;;;6.37;5.40;;;;;;;21.34;60.61;99484.03;4967743;28;20255;-84
2021/06/18 04:13:52;;;;;;;5.63;5.10;;;;;;;22.14;58.20;99485.84;4967713;28;20246;-80
2021/06/18 04:16:19;;;;;;;5.77;5.20;;;;;;;22.53;56.10;99488.97;5016943;28;20232;-83
2021/06/18 04:18:46;;;;;;;5.77;5.27;;;;;;;23.10;54.80;99495.75;4967751;28;20223;-86
2021/06/18 04:21:16;;;;;;;5.37;4.93;;;;;;;23.46;53.67;99501.31;4983482;28;20232;-81
2021/06/18 04:23:43;;;;;;;6.77;5.10;;;;;;;23.84;51.79;99488.16;4983618;28;20313;-87
2021/06/18 04:26:09;;;;;;;7.40;5.43;;;;;;;24.49;50.19;99488.44;4999528;28;20241;-83
2021/06/18 04:28:36;;;;;;;6.23;4.80;;;;;;;25.33;48.03;99487.44;4999769;28;20282;-86
2021/06/18 04:31:04;;;;;;;5.47;5.00;;;;;;;26.33;45.61;99544.97;4983098;28;20252;-83
2021/06/18 04:33:32;;;;;;;5.63;4.95;;;;;;;27.21;42.85;99587.25;4982823;28;20309;-86
2021/06/18 04:35:59;;;;;;;5.63;4.97;;;;;;;26.99;43.39;99588.31;4983467;28;20284;-83
2021/06/18 04:38:25;;;;;;;5.05;4.65;;;;;;;27.92;41.27;99552.34;4999506;28;20257;-84
2021/06/18 04:40:53;;;;;;;5.68;4.97;;;;;;;27.41;42.13;99494.91;4983599;28;20226;-86
2021/06/18 04:43:20;;;;;;;5.50;5.00;;;;;;;26.32;44.29;99491.97;4983780;28;20226;-87
2021/06/18 04:45:47;;;;;;;7.70;4.90;;;;;;;25.66;45.90;99474.91;4999806;28;20326;-81
2021/06/18 04:48:14;;;;;;;5.53;5.00;;;;;;;25.27;47.43;99478.56;4983399;28;20230;-85
2021/06/18 04:50:41;;;;;;;5.45;4.95;;;;;;;24.95;48.72;99487.19;4983928;28;20233;-87
2021/06/18 04:53:10;;;;;;;5.93;5.43;;;;;;;24.81;49.24;99489.22;4967208;28;20230;-85
2021/06/18 04:55:38;;;;;;;6.80;5.18;;;;;;;24.80;49.52;99499.34;4983930;28;20257;-86
2021/06/18 04:58:05;;;;;;;6.78;5.57;;;;;;;24.62;49.69;99494.94;4999084;28;20724;-80
2021/06/18 05:00:33;;;;;;;11.38;5.47;;;;;;;24.47;50.31;99476.97;4999427;28;20249;-84
2021/06/18 05:03:00;;;;;;;9.82;5.50;;;;;;;24.41;51.00;99491.09;4999015;28;20231;-87
2021/06/18 05:05:28;;;;;;;12.55;5.30;;;;;;;24.37;51.44;99490.13;4999333;28;20230;-86
2021/06/18 05:07:55;;;;;;;8.48;5.25;;;;;;;24.47;51.19;99484.38;5016577;28;20268;-87
2021/06/18 05:10:23;;;;;;;9.30;5.15;;;;;;;24.54;51.14;99490.22;4982518;28;20280;-84
2021/06/18 05:12:51;;;;;;;10.02;5.50;;;;;;;24.58;51.25;99496.69;4982930;28;20325;-84
2021/06/18 05:15:19;;;;;;;10.52;5.28;;;;;;;24.73;51.22;99492.72;4999171;28;20281;-81
2021/06/18 05:17:45;;;;;;;7.53;5.38;;;;;;;24.92;50.62;99501.50;4983024;28;20246;-83
2021/06/18 05:20:13;;;;;;;14.55;5.57;;;;;;;25.07;50.31;99492.88;4998449;28;20557;-85
2021/06/18 05:22:40;;;;;;;8.63;5.50;;;;;;;25.25;49.95;99485.47;4998778;28;20638;-86
2021/06/18 05:25:08;;;;;;;7.82;5.50;;;;;;;25.42;49.54;99488.28;4999296;28;20227;-86
2021/06/18 05:27:35;;;;;;;9.85;5.53;;;;;;;25.59;48.90;99482.00;4999088;28;20258;-84
2021/06/18 05:30:04;;;;;;;14.27;5.55;;;;;;;25.75;48.76;99500.44;4998264;28;20730;-82
2021/06/18 05:32:43;;;;;;;10.98;5.28;;;;;;;25.82;48.64;99491.69;5000719;28;20232;-80
2021/06/18 05:35:10;;;;;;;10.15;5.10;;;;;;;25.97;48.42;99493.16;4998698;28;20234;-84
2021/06/18 05:37:37;;;;;;;7.70;5.00;;;;;;;26.27;47.92;99492.97;4982498;28;20324;-84
2021/06/18 05:40:05;;;;;;;9.77;4.75;;;;;;;26.43;47.56;99486.94;4966340;28;20321;-85
2021/06/18 05:42:33;;;;;;;7.13;5.50;;;;;;;26.52;48.04;99491.28;4998836;28;20227;-85
2021/06/18 05:45:00;;;;;;;7.82;5.05;;;;;;;26.71;47.52;99499.94;4982636;28;20232;-86
2021/06/18 05:47:27;;;;;;;7.90;5.22;;;;;;;26.84;47.21;99492.63;4999130;28;20225;-82
2021/06/18 05:49:54;;;;;;;6.38;5.30;;;;;;;26.84;46.89;99480.81;4982488;28;20265;-83
2021/06/18 05:52:20;;;;;;;8.98;5.47;;;;;;;26.78;46.56;99480.22;4982209;28;20578;-81
2021/06/18 05:54:47;;;;;;;7.53;5.22;;;;;;;27.02;46.41;99496.09;4998679;28;20306;-87
2021/06/18 05:57:14;;;;;;;7.32;5.35;;;;;;;27.11;46.55;99489.44;4982636;28;20244;-85
2021/06/18 05:59:41;;;;;;;7.15;5.40;;;;;;;27.09;45.70;99483.47;4998203;28;20604;-85
2021/06/18 06:02:08;;;;;;;6.97;5.07;;;;;;;27.12;45.82;99480.03;4998053;28;20585;-88
2021/06/18 06:04:35;;;;;;;7.45;5.25;;;;;;;27.20;45.65;99489.41;4998422;28;20226;-85
2021/06/18 06:07:02;;;;;;;6.68;5.07;;;;;;;27.30;45.80;99486.25;4982462;28;20229;-85
2021/06/18 06:09:29;;;;;;;5.53;4.60;;;;;;;27.26;45.24;99474.28;4966450;28;20233;-86
2021/06/18 06:11:55;;;;;;;5.57;4.88;;;;;;;27.41;44.67;99478.41;5015496;28;20312;-81
2021/06/18 06:14:22;;;;;;;5.28;4.80;;;;;;;27.40;44.59;99457.53;4965779;28;20230;-87
2021/06/18 06:16:49;;;;;;;6.70;5.15;;;;;;;27.71;44.19;99490.19;4998237;28;20229;-82
2021/06/18 06:19:15;;;;;;;6.03;5.05;;;;;;;27.92;43.63;99479.97;4982156;28;20246;-81
2021/06/18 06:21:44;;;;;;;7.03;5.18;;;;;;;27.98;43.35;99482.19;4998238;28;20568;-86
2021/06/18 06:24:12;;;;;;;5.68;5.18;;;;;;;28.18;43.10;99494.34;5014974;28;20626;-86
2021/06/18 06:26:39;;;;;;;5.43;4.70;;;;;;;28.26;42.73;99487.13;4982032;28;20233;-86
2021/06/18 06:29:06;;;;;;;6.85;4.78;;;;;;;28.37;42.69;99483.59;4982123;28;20651;-80
2021/06/18 06:31:33;;;;;;;7.30;4.75;;;;;;;28.51;42.85;99488.78;4982106;28;20532;-80
2021/06/18 06:34:00;;;;;;;11.05;5.00;;;;;;;28.68;42.43;99480.31;4981939;28;20293;-83
2021/06/18 06:36:27;;;;;;;5.20;4.68;;;;;;;28.77;41.20;99472.78;4997541;28;20309;-81
2021/06/18 06:38:53;;;;;;;6.38;5.05;;;;;;;28.87;41.42;99480.59;4997920;28;20231;-86
2021/06/18 06:41:20;;;;;;;5.45;4.50;;;;;;;28.94;39.76;99488.28;5014992;28;20229;-88
2021/06/18 06:43:47;;;;;;;6.13;4.70;;;;;;;29.03;39.87;99474.38;4997654;28;20234;-80
2021/06/18 06:46:18;;;;;;;5.35;4.43;;;;;;;29.16;39.58;99476.00;4965503;28;20242;-85
2021/06/18 06:48:45;;;;;;;4.72;4.35;;;;;;;29.24;39.19;99469.53;4997595;28;20227;-86
2021/06/18 06:51:12;;;;;;;4.63;3.95;;;;;;;29.35;38.42;99469.91;4965685;28;20238;-86
2021/06/18 06:53:39;;;;;;;5.70;4.28;;;;;;;29.46;38.87;99462.72;4997831;28;20642;-85
2021/06/18 06:56:05;;;;;;;6.15;4.25;;;;;;;29.60;38.49;99465.91;4983045;28;20227;-89
2021/06/18 06:58:32;;;;;;;5.43;4.40;;;;;;;29.85;37.77;99470.22;5016882;28;20223;-83
2021/06/18 07:00:59;;;;;;;5.30;4.25;;;;;;;29.99;37.14;99475.38;4984445;28;20658;-81
2021/06/18 07:03:26;;;;;;;10.13;5.10;;;;;;;30.08;37.05;99476.00;5001086;28;20308;-88
2021/06/18 07:05:53;;;;;;;8.30;4.70;;;;;;;30.19;36.43;99491.72;5000595;28;20321;-81
2021/06/18 07:08:22;;;;;;;6.85;4.22;;;;;;;30.32;36.22;99489.69;5000540;28;20227;-87
2021/06/18 07:10:49;;;;;;;8.30;4.60;;;;;;;30.31;35.76;99485.34;4984798;28;20278;-84
2021/06/18 07:13:16;;;;;;;7.30;4.93;;;;;;;30.28;36.28;99479.72;4984564;28;20231;-84
2021/06/18 07:15:43;;;;;;;5.88;4.63;;;;;;;30.36;36.12;99470.44;4988311;28;20302;-89
2021/06/18 07:18:10;;;;;;;6.85;4.60;;;;;;;30.36;35.83;99475.97;4981143;28;20266;-82
2021/06/18 07:20:37;;;;;;;8.07;4.82;;;;;;;30.28;36.13;99490.78;4981697;28;20231;-84
2021/06/18 07:23:04;;;;;;;5.72;4.80;;;;;;;30.41;36.28;99478.47;4981226;28;20240;-89
2021/06/18 07:25:31;;;;;;;8.32;4.63;;;;;;;30.45;36.10;99471.91;4980975;28;20290;-86
2021/06/18 07:27:58;;;;;;;8.55;5.03;;;;;;;30.49;36.27;99472.81;4964830;28;20231;-81
2021/06/18 07:30:25;;;;;;;10.13;4.82;;;;;;;30.46;36.86;99472.72;4948609;28;20232;-81
2021/06/18 07:32:52;;;;;;;5.47;4.50;;;;;;;30.46;37.00;99472.72;4990742;28;20227;-89
2021/06/18 07:35:18;;;;;;;6.13;4.78;;;;;;;30.59;35.87;99475.06;4983083;28;20230;-81
2021/06/18 07:37:45;;;;;;;7.80;4.70;;;;;;;30.49;35.93;99467.28;4968458;28;20239;-86
2021/06/18 07:40:14;;;;;;;11.63;4.53;;;;;;;30.69;35.78;99467.38;4983952;28;20281;-89
2021/06/18 07:42:42;;;;;;;8.13;4.80;;;;;;;30.63;35.94;99458.53;5017579;28;20227;-83
2021/06/18 07:45:10;;;;;;;7.38;5.05;;;;;;;30.77;35.77;99467.19;4984003;28;20262;-87
2021/06/18 07:47:39;;;;;;;5.30;4.55;;;;;;;30.83;35.88;99460.25;4980979;28;20663;-80
2021/06/18 07:50:14;;;;;;;10.38;4.97;;;;;;;30.76;35.68;99464.78;4980873;28;20235;-81
2021/06/18 07:52:41;;;;;;;5.88;4.50;;;;;;;30.94;35.45;99452.97;4999695;28;20589;-87
2021/06/18 07:55:10;;;;;;;5.00;4.60;;;;;;;31.02;34.84;99443.75;4999419;28;20239;-86
2021/06/18 07:57:39;;;;;;;5.13;3.97;;;;;;;31.12;34.27;99442.38;4982912;28;20289;-79
2021/06/18 08:00:08;;;;;;;5.20;4.28;;;;;;;31.15;34.54;99458.25;4999047;28;20694;-88
2021/06/18 08:02:39;;;;;;;4.25;3.58;;;;;;;31.31;32.80;99439.63;4999096;28;20305;-86
2021/06/18 08:05:09;;;;;;;5.43;3.92;;;;;;;31.36;33.56;99450.41;4982647;28;20318;-89
2021/06/18 08:07:41;;;;;;;4.47;4.07;;;;;;;31.39;32.55;99429.53;5016163;28;20304;-80
2021/06/18 08:10:09;;;;;;;6.53;4.00;;;;;;;31.40;32.20;99431.91;4998974;28;20708;-86
2021/06/18 08:12:37;;;;;;;3.92;3.50;;;;;;;31.33;31.97;99437.31;4999556;28;20289;-86
2021/06/18 08:15:05;;;;;;;7.47;4.03;;;;;;;31.37;32.42;99437.38;4999052;28;20318;-83
2021/06/18 08:17:32;;;;;;;5.70;4.13;;;;;;;31.44;32.92;99427.28;4966875;28;20227;-81
2021/06/18 08:19:58;;;;;;;4.68;3.80;;;;;;;31.49;32.40;99428.97;4982588;28;20235;-87
2021/06/18 08:22:25;;;;;;;6.60;4.25;;;;;;;31.43;32.45;99422.91;4982270;28;20234;-83
2021/06/18 08:24:52;;;;;;;5.90;4.28;;;;;;;31.53;32.63;99435.38;4983090;28;20250;-80
2021/06/18 08:27:19;;;;;;;4.45;4.13;;;;;;;31.51;32.54;99423.84;4999190;28;20824;-81
2021/06/18 08:29:46;;;;;;;4.45;3.95;;;;;;;31.54;32.90;99427.88;4999063;28;20338;-84
2021/06/18 08:32:13;;;;;;;5.38;3.88;;;;;;;31.54;32.79;99436.97;5015530;28;20227;-88
2021/06/18 08:34:40;;;;;;;5.80;4.32;;;;;;;31.48;32.53;99427.34;4982341;28;20672;-84
2021/06/18 08:37:07;;;;;;;5.88;4.20;;;;;;;31.57;32.95;99427.16;4998732;28;20602;-83
2021/06/18 08:39:34;;;;;;;5.20;3.80;;;;;;;31.52;32.03;99408.84;4982575;28;20227;-82
2021/06/18 08:42:00;;;;;;;6.18;3.83;;;;;;;31.55;32.35;99410.88;4982072;28;20252;-81
2021/06/18 08:44:27;;;;;;;7.25;4.00;;;;;;;31.60;32.40;99418.91;4998656;28;20335;-81
2021/06/18 08:46:54;;;;;;;4.40;4.00;;;;;;;31.72;32.20;99423.53;4998981;28;20624;-79
2021/06/18 08:49:22;;;;;;;4.18;3.78;;;;;;;31.89;32.20;99417.53;5016534;28;20231;-88
2021/06/18 08:51:49;;;;;;;4.20;3.75;;;;;;;31.85;33.14;99417.47;4999198;28;20254;-81
2021/06/18 08:54:16;;;;;;;4.47;3.63;;;;;;;32.00;30.54;99412.19;4998869;28;20231;-84
2021/06/18 08:56:46;;;;;;;6.90;3.95;;;;;;;31.98;30.74;99415.31;4999239;28;20289;-86
2021/06/18 08:59:13;;;;;;;5.85;3.70;;;;;;;32.13;30.75;99421.97;4999468;28;20296;-89
2021/06/18 09:01:39;;;;;;;6.25;3.53;;;;;;;32.07;30.00;99413.13;5016153;28;20227;-82
2021/06/18 09:04:07;;;;;;;4.97;3.42;;;;;;;32.29;29.66;99417.91;4995185;28;20231;-84
2021/06/18 09:06:39;;;;;;;3.88;3.42;;;;;;;32.32;29.04;99417.19;4976055;28;20228;-84
2021/06/18 09:09:18;;;;;;;4.63;3.30;;;;;;;32.32;29.58;99424.69;4959995;28;20243;-80
2021/06/18 09:11:50;;;;;;;5.60;3.50;;;;;;;32.40;29.57;99420.06;4989468;28;20282;-83
2021/06/18 09:14:23;;;;;;;6.78;3.67;;;;;;;32.60;29.96;99422.41;4978616;28;20230;-85
2021/06/18 09:17:19;;;;;;;3.92;3.60;;;;;;;32.79;28.88;99418.78;4995268;28;20243;-83
2021/06/18 09:19:53;;;;;;;4.07;3.17;;;;;;;32.87;28.50;99409.38;4995126;28;20231;-86
2021/06/18 09:22:22;;;;;;;4.45;3.50;;;;;;;32.80;28.00;99414.84;4995045;28;20580;-84
2021/06/18 09:24:59;;;;;;;4.72;3.15;;;;;;;32.99;26.99;99405.59;4996265;28;20255;-83
2021/06/18 09:27:34;;;;;;;3.45;3.00;;;;;;;33.09;26.84;99404.94;4995134;28;20219;-87
2021/06/18 09:30:19;;;;;;;3.90;3.20;;;;;;;33.21;27.42;99409.50;4994911;28;20231;-85
2021/06/18 09:33:07;;;;;;;4.38;3.22;;;;;;;33.07;27.34;99399.78;4995314;28;20229;-88
2021/06/18 09:35:34;;;;;;;3.90;3.28;;;;;;;33.16;27.97;99407.84;4979561;28;20231;-80
2021/06/18 09:38:04;;;;;;;5.18;3.63;;;;;;;33.16;28.06;99410.63;4994490;28;20231;-83
2021/06/18 09:40:31;;;;;;;4.35;3.25;;;;;;;33.26;26.92;99396.09;4978649;28;20285;-80
2021/06/18 09:43:02;;;;;;;6.55;3.25;;;;;;;33.17;26.09;99396.38;4995167;28;20251;-80
2021/06/18 09:45:31;;;;;;;4.03;3.05;;;;;;;33.39;26.44;99408.56;4978649;28;20231;-84
2021/06/18 09:48:15;;;;;;;3.38;3.08;;;;;;;33.41;25.42;99403.41;4994378;28;20235;-81
2021/06/18 09:50:47;;;;;;;4.70;2.95;;;;;;;33.62;25.54;99400.91;5010735;28;20223;-80
2021/06/18 09:53:22;;;;;;;3.17;2.88;;;;;;;33.67;25.07;99399.81;4962880;28;20309;-81
2021/06/18 09:56:07;;;;;;;3.47;2.90;;;;;;;33.82;24.73;99392.44;4978662;28;20239;-81
2021/06/18 09:58:36;;;;;;;5.55;3.17;;;;;;;33.83;24.55;99388.50;4995396;28;20231;-80
2021/06/18 10:01:17;;;;;;;3.00;2.80;;;;;;;34.05;24.64;99393.06;4978649;28;20243;-83
2021/06/18 10:04:04;;;;;;;3.30;3.00;;;;;;;34.05;24.59;99393.88;4997024;28;20235;-83
2021/06/18 10:06:35;;;;;;;3.25;2.95;;;;;;;33.88;25.38;99385.34;4981407;28;20235;-83
2021/06/18 10:09:07;;;;;;;4.72;3.22;;;;;;;33.99;24.47;99383.47;4997981;28;20226;-82
2021/06/18 10:11:35;;;;;;;3.33;2.92;;;;;;;34.06;24.92;99384.34;4997875;28;20746;-83
2021/06/18 10:14:02;;;;;;;4.85;3.03;;;;;;;34.18;24.76;99396.41;4981226;28;20285;-81
2021/06/18 10:16:29;;;;;;;3.80;2.92;;;;;;;34.08;23.80;99383.97;4981490;28;20301;-83
2021/06/18 10:18:57;;;;;;;5.55;2.80;;;;;;;33.98;24.74;99376.31;4978068;28;20238;-83
2021/06/18 10:21:24;;;;;;;4.88;3.03;;;;;;;33.92;25.04;99378.63;4962044;28;20644;-85
2021/06/18 10:23:56;;;;;;;4.03;3.03;;;;;;;33.91;25.11;99371.50;4994490;28;20679;-81
2021/06/18 10:26:24;;;;;;;5.20;3.22;;;;;;;33.75;25.27;99382.03;4977798;28;20568;-80
2021/06/18 10:28:59;;;;;;;6.63;3.13;;;;;;;34.02;25.29;99375.16;4994211;28;20227;-83
2021/06/18 10:31:26;;;;;;;5.50;3.47;;;;;;;33.99;25.03;99391.81;4980736;28;20709;-84
2021/06/18 10:34:12;;;;;;;3.92;2.80;;;;;;;34.34;25.27;99367.16;4982282;28;20323;-82
2021/06/18 10:36:39;;;;;;;4.50;3.05;;;;;;;34.43;25.36;99386.31;4965870;28;20219;-84
2021/06/18 10:39:19;;;;;;;4.40;3.17;;;;;;;34.38;25.59;99370.78;4981949;28;20301;-80
2021/06/18 10:41:52;;;;;;;3.20;2.88;;;;;;;34.47;24.80;99376.00;4982123;28;20266;-80
2021/06/18 10:44:38;;;;;;;3.05;2.80;;;;;;;34.78;24.56;99372.69;4997678;28;20554;-80
2021/06/18 10:47:06;;;;;;;3.90;2.95;;;;;;;34.81;24.56;99371.91;4998962;28;20676;-83
2021/06/18 10:49:37;;;;;;;3.83;3.08;;;;;;;34.89;24.57;99361.63;4965618;28;20235;-80
2021/06/18 10:52:25;;;;;;;7.07;3.45;;;;;;;35.04;24.94;99357.75;4981405;28;20243;-81
2021/06/18 10:54:58;;;;;;;6.32;3.33;;;;;;;35.04;24.43;99357.75;4981547;28;20228;-83
2021/06/18 10:57:26;;;;;;;3.38;3.17;;;;;;;35.37;24.25;99375.44;4981636;28;20228;-81
2021/06/18 10:59:55;;;;;;;3.42;2.97;;;;;;;35.36;23.47;99349.56;4997706;28;20342;-81
2021/06/18 11:02:25;;;;;;;7.63;3.75;;;;;;;35.30;24.03;99359.47;4965153;28;20235;-80
2021/06/18 11:04:53;;;;;;;4.20;3.05;;;;;;;35.25;24.34;99360.66;4998444;28;20265;-84
2021/06/18 11:07:22;;;;;;;4.78;3.60;;;;;;;35.05;24.49;99361.31;4990029;28;20246;-81
2021/06/18 11:09:53;;;;;;;3.45;2.92;;;;;;;35.10;25.11;99355.38;4981635;28;20636;-80
2021/06/18 11:12:26;;;;;;;3.20;2.90;;;;;;;35.15;24.50;99347.44;4986628;28;20242;-80
2021/06/18 11:14:57;;;;;;;3.30;2.88;;;;;;;35.34;23.80;99358.31;5000862;28;20230;-82
2021/06/18 11:17:45;;;;;;;6.25;3.13;;;;;;;35.55;23.61;99342.88;5000962;28;20662;-81
2021/06/18 11:20:22;;;;;;;7.32;3.40;;;;;;;35.54;24.55;99349.63;4980749;28;20232;-84
2021/06/18 11:22:58;;;;;;;3.47;3.17;;;;;;;35.59;24.42;99344.47;4965123;28;20231;-85
2021/06/18 11:25:40;;;;;;;3.63;3.10;;;;;;;35.85;23.95;99336.97;4981160;28;20309;-83
2021/06/18 11:28:27;;;;;;;3.38;3.08;;;;;;;35.95;23.32;99336.22;4997845;28;20231;-83
2021/06/18 11:30:54;;;;;;;3.42;3.13;;;;;;;35.97;24.20;99337.41;4997121;28;20234;-81
2021/06/18 11:33:36;;;;;;;5.10;2.83;;;;;;;35.86;23.20;99328.22;4981003;28;20966;-81
2021/06/18 11:36:04;;;;;;;3.35;3.05;;;;;;;35.81;23.33;99330.59;4997645;28;20550;-83
2021/06/18 11:38:31;;;;;;;3.40;3.10;;;;;;;35.57;23.86;99330.13;4997057;28;20231;-80
2021/06/18 11:41:00;;;;;;;5.13;3.08;;;;;;;35.57;24.27;99320.97;4980194;28;20224;-82
2021/06/18 11:43:28;;;;;;;3.42;3.10;;;;;;;35.84;24.30;99335.38;4980964;28;20701;-80
2021/06/18 11:45:56;;;;;;;4.85;3.15;;;;;;;35.96;22.94;99335.81;4996754;28;20695;-80